sensor_id;sensor_type;location;lat;lon;timestamp;P1;durP1;ratioP1;P2;durP2;ratioP2
64186;SDS011;50491;39.484;-8.540;2022-08-07T00:03:33;9.15;;;2.80;;
64186;SDS011;50491;39.484;-8.540;2022-08-07T00:08:24;11.40;;;4.20;;
64186;SDS011;50491;39.484;-8.540;2022-08-07T00:13:07;8.77;;;3.95;;
64186;SDS011;50491;39.484;-8.540;2022-08-07T00:15:09;6.88;;;3.30;;
64186;SDS011;50491;39.484;-8.540;2022-08-07T00:17:10;10.20;;;4.00;;
64186;SDS011;50491;39.484;-8.540;2022-08-07T00:19:12;6.95;;;2.97;;
64186;SDS011;50491;39.484;-8.540;2022-08-07T00:21:12;8.38;;;3.90;;
64186;SDS011;50491;39.484;-8.540;2022-08-07T00:23:13;8.88;;;3.50;;
64186;SDS011;50491;39.484;-8.540;2022-08-07T00:25:33;12.38;;;4.45;;
64186;SDS011;50491;39.484;-8.540;2022-08-07T00:27:34;7.63;;;3.90;;
64186;SDS011;50491;39.484;-8.540;2022-08-07T00:29:37;11.88;;;4.43;;
64186;SDS011;50491;39.484;-8.540;2022-08-07T00:31:37;9.70;;;3.90;;
64186;SDS011;50491;39.484;-8.540;2022-08-07T00:33:38;10.23;;;4.13;;
64186;SDS011;50491;39.484;-8.540;2022-08-07T00:36:31;8.35;;;3.58;;
64186;SDS011;50491;39.484;-8.540;2022-08-07T00:44:10;9.63;;;3.45;;
64186;SDS011;50491;39.484;-8.540;2022-08-07T00:48:50;6.55;;;3.72;;
64186;SDS011;50491;39.484;-8.540;2022-08-07T00:50:51;11.20;;;5.32;;
64186;SDS011;50491;39.484;-8.540;2022-08-07T00:52:52;17.60;;;5.50;;
64186;SDS011;50491;39.484;-8.540;2022-08-07T00:54:52;11.02;;;5.00;;
64186;SDS011;50491;39.484;-8.540;2022-08-07T00:56:53;13.93;;;5.15;;
64186;SDS011;50491;39.484;-8.540;2022-08-07T00:58:55;9.00;;;5.75;;
64186;SDS011;50491;39.484;-8.540;2022-08-07T01:00:55;11.52;;;5.95;;
64186;SDS011;50491;39.484;-8.540;2022-08-07T01:02:56;13.73;;;5.45;;
64186;SDS011;50491;39.484;-8.540;2022-08-07T01:05:16;13.75;;;5.65;;
64186;SDS011;50491;39.484;-8.540;2022-08-07T01:07:35;19.10;;;5.80;;
64186;SDS011;50491;39.484;-8.540;2022-08-07T01:09:54;13.15;;;5.78;;
64186;SDS011;50491;39.484;-8.540;2022-08-07T01:11:55;11.63;;;5.90;;
64186;SDS011;50491;39.484;-8.540;2022-08-07T01:14:15;7.60;;;5.15;;
64186;SDS011;50491;39.484;-8.540;2022-08-07T01:16:16;11.23;;;5.70;;
64186;SDS011;50491;39.484;-8.540;2022-08-07T01:18:19;12.35;;;5.90;;
64186;SDS011;50491;39.484;-8.540;2022-08-07T01:23:17;17.58;;;6.45;;
64186;SDS011;50491;39.484;-8.540;2022-08-07T01:40:47;14.20;;;6.75;;
64186;SDS011;50491;39.484;-8.540;2022-08-07T01:42:49;14.85;;;7.97;;
64186;SDS011;50491;39.484;-8.540;2022-08-07T01:45:09;16.75;;;7.47;;
64186;SDS011;50491;39.484;-8.540;2022-08-07T01:47:10;24.77;;;10.13;;
64186;SDS011;50491;39.484;-8.540;2022-08-07T01:49:29;19.35;;;8.98;;
64186;SDS011;50491;39.484;-8.540;2022-08-07T01:52:07;14.52;;;7.93;;
64186;SDS011;50491;39.484;-8.540;2022-08-07T01:54:09;17.92;;;8.15;;
64186;SDS011;50491;39.484;-8.540;2022-08-07T01:56:40;14.80;;;8.70;;
64186;SDS011;50491;39.484;-8.540;2022-08-07T01:58:51;16.35;;;8.07;;
64186;SDS011;50491;39.484;-8.540;2022-08-07T02:01:14;16.98;;;9.30;;
64186;SDS011;50491;39.484;-8.540;2022-08-07T02:03:21;12.85;;;6.95;;
64186;SDS011;50491;39.484;-8.540;2022-08-07T02:05:25;8.35;;;5.80;;
64186;SDS011;50491;39.484;-8.540;2022-08-07T02:07:45;18.65;;;6.10;;
64186;SDS011;50491;39.484;-8.540;2022-08-07T02:09:52;9.18;;;4.65;;
64186;SDS011;50491;39.484;-8.540;2022-08-07T02:12:13;6.45;;;4.15;;
64186;SDS011;50491;39.484;-8.540;2022-08-07T02:14:36;10.00;;;5.28;;
64186;SDS011;50491;39.484;-8.540;2022-08-07T02:16:39;13.85;;;5.72;;
64186;SDS011;50491;39.484;-8.540;2022-08-07T02:18:58;14.23;;;5.32;;
64186;SDS011;50491;39.484;-8.540;2022-08-07T02:21:04;14.73;;;7.18;;
64186;SDS011;50491;39.484;-8.540;2022-08-07T02:23:08;16.42;;;6.70;;
64186;SDS011;50491;39.484;-8.540;2022-08-07T02:25:09;10.20;;;6.22;;
64186;SDS011;50491;39.484;-8.540;2022-08-07T02:27:11;12.40;;;6.60;;
64186;SDS011;50491;39.484;-8.540;2022-08-07T02:29:14;12.45;;;5.70;;
64186;SDS011;50491;39.484;-8.540;2022-08-07T02:31:33;9.93;;;5.47;;
64186;SDS011;50491;39.484;-8.540;2022-08-07T02:33:35;11.77;;;5.50;;
64186;SDS011;50491;39.484;-8.540;2022-08-07T02:35:36;13.30;;;5.97;;
64186;SDS011;50491;39.484;-8.540;2022-08-07T02:37:40;8.80;;;4.95;;
64186;SDS011;50491;39.484;-8.540;2022-08-07T02:39:43;12.50;;;4.75;;
64186;SDS011;50491;39.484;-8.540;2022-08-07T02:41:50;10.48;;;5.22;;
64186;SDS011;50491;39.484;-8.540;2022-08-07T02:43:52;7.43;;;5.30;;
64186;SDS011;50491;39.484;-8.540;2022-08-07T02:45:54;7.30;;;5.32;;
64186;SDS011;50491;39.484;-8.540;2022-08-07T02:47:58;12.50;;;5.93;;
64186;SDS011;50491;39.484;-8.540;2022-08-07T02:49:59;12.85;;;5.68;;
64186;SDS011;50491;39.484;-8.540;2022-08-07T02:52:03;8.88;;;5.22;;
64186;SDS011;50491;39.484;-8.540;2022-08-07T02:54:23;10.82;;;6.10;;
64186;SDS011;50491;39.484;-8.540;2022-08-07T03:01:45;13.32;;;8.05;;
64186;SDS011;50491;39.484;-8.540;2022-08-07T03:03:47;13.82;;;7.28;;
64186;SDS011;50491;39.484;-8.540;2022-08-07T03:07:53;23.77;;;8.63;;
64186;SDS011;50491;39.484;-8.540;2022-08-07T03:16:00;10.73;;;6.65;;
64186;SDS011;50491;39.484;-8.540;2022-08-07T03:18:20;13.63;;;7.13;;
64186;SDS011;50491;39.484;-8.540;2022-08-07T03:27:56;12.10;;;6.03;;
64186;SDS011;50491;39.484;-8.540;2022-08-07T03:29:58;13.75;;;6.32;;
64186;SDS011;50491;39.484;-8.540;2022-08-07T03:32:01;12.65;;;6.15;;
64186;SDS011;50491;39.484;-8.540;2022-08-07T03:34:24;14.45;;;6.68;;
64186;SDS011;50491;39.484;-8.540;2022-08-07T03:41:41;10.63;;;6.53;;
64186;SDS011;50491;39.484;-8.540;2022-08-07T03:48:41;15.75;;;6.13;;
64186;SDS011;50491;39.484;-8.540;2022-08-07T03:50:43;11.63;;;5.63;;
64186;SDS011;50491;39.484;-8.540;2022-08-07T03:53:02;16.60;;;6.45;;
64186;SDS011;50491;39.484;-8.540;2022-08-07T03:55:05;17.02;;;7.38;;
64186;SDS011;50491;39.484;-8.540;2022-08-07T03:57:43;14.90;;;7.22;;
64186;SDS011;50491;39.484;-8.540;2022-08-07T03:59:44;14.07;;;7.18;;
64186;SDS011;50491;39.484;-8.540;2022-08-07T04:01:45;10.27;;;5.00;;
64186;SDS011;50491;39.484;-8.540;2022-08-07T04:04:05;8.85;;;5.57;;
64186;SDS011;50491;39.484;-8.540;2022-08-07T04:06:07;11.43;;;6.45;;
64186;SDS011;50491;39.484;-8.540;2022-08-07T04:08:10;9.43;;;6.47;;
64186;SDS011;50491;39.484;-8.540;2022-08-07T04:10:12;20.92;;;7.82;;
64186;SDS011;50491;39.484;-8.540;2022-08-07T04:12:32;11.05;;;5.25;;
64186;SDS011;50491;39.484;-8.540;2022-08-07T04:14:58;19.27;;;8.63;;
64186;SDS011;50491;39.484;-8.540;2022-08-07T04:16:59;14.77;;;7.75;;
64186;SDS011;50491;39.484;-8.540;2022-08-07T04:19:00;11.77;;;6.78;;
64186;SDS011;50491;39.484;-8.540;2022-08-07T04:21:20;20.77;;;7.03;;
64186;SDS011;50491;39.484;-8.540;2022-08-07T04:23:39;16.85;;;6.82;;
64186;SDS011;50491;39.484;-8.540;2022-08-07T04:26:05;14.20;;;6.10;;
64186;SDS011;50491;39.484;-8.540;2022-08-07T04:28:56;17.00;;;6.20;;
64186;SDS011;50491;39.484;-8.540;2022-08-07T04:30:57;22.45;;;7.75;;
64186;SDS011;50491;39.484;-8.540;2022-08-07T04:33:10;22.30;;;8.63;;
64186;SDS011;50491;39.484;-8.540;2022-08-07T04:35:15;16.70;;;7.45;;
64186;SDS011;50491;39.484;-8.540;2022-08-07T04:39:53;12.63;;;7.57;;
64186;SDS011;50491;39.484;-8.540;2022-08-07T04:41:54;14.85;;;7.43;;
64186;SDS011;50491;39.484;-8.540;2022-08-07T04:43:55;23.23;;;9.48;;
64186;SDS011;50491;39.484;-8.540;2022-08-07T04:53:50;11.55;;;7.72;;
64186;SDS011;50491;39.484;-8.540;2022-08-07T04:56:14;17.10;;;8.82;;
64186;SDS011;50491;39.484;-8.540;2022-08-07T04:58:33;12.38;;;7.25;;
64186;SDS011;50491;39.484;-8.540;2022-08-07T05:00:58;16.85;;;7.45;;
64186;SDS011;50491;39.484;-8.540;2022-08-07T05:03:19;16.05;;;7.25;;
64186;SDS011;50491;39.484;-8.540;2022-08-07T05:05:31;14.40;;;7.32;;
64186;SDS011;50491;39.484;-8.540;2022-08-07T05:07:41;16.17;;;8.10;;
64186;SDS011;50491;39.484;-8.540;2022-08-07T05:11:54;19.70;;;8.43;;
64186;SDS011;50491;39.484;-8.540;2022-08-07T05:14:22;18.85;;;9.30;;
64186;SDS011;50491;39.484;-8.540;2022-08-07T05:16:50;15.82;;;9.10;;
64186;SDS011;50491;39.484;-8.540;2022-08-07T05:19:19;18.00;;;10.18;;
64186;SDS011;50491;39.484;-8.540;2022-08-07T05:21:21;22.50;;;10.68;;
64186;SDS011;50491;39.484;-8.540;2022-08-07T05:23:32;17.92;;;9.77;;
64186;SDS011;50491;39.484;-8.540;2022-08-07T05:25:36;25.52;;;9.32;;
64186;SDS011;50491;39.484;-8.540;2022-08-07T05:27:40;20.60;;;10.95;;
64186;SDS011;50491;39.484;-8.540;2022-08-07T05:29:42;30.85;;;10.93;;
64186;SDS011;50491;39.484;-8.540;2022-08-07T05:31:45;19.17;;;10.07;;
64186;SDS011;50491;39.484;-8.540;2022-08-07T05:34:08;13.05;;;7.53;;
64186;SDS011;50491;39.484;-8.540;2022-08-07T05:36:11;15.32;;;9.07;;
64186;SDS011;50491;39.484;-8.540;2022-08-07T05:38:31;12.43;;;8.48;;
64186;SDS011;50491;39.484;-8.540;2022-08-07T05:40:33;16.00;;;8.80;;
64186;SDS011;50491;39.484;-8.540;2022-08-07T05:42:37;17.58;;;10.43;;
64186;SDS011;50491;39.484;-8.540;2022-08-07T05:44:42;17.52;;;8.35;;
64186;SDS011;50491;39.484;-8.540;2022-08-07T05:47:01;21.13;;;8.65;;
64186;SDS011;50491;39.484;-8.540;2022-08-07T05:49:04;18.10;;;8.23;;
64186;SDS011;50491;39.484;-8.540;2022-08-07T05:51:08;24.80;;;9.77;;
64186;SDS011;50491;39.484;-8.540;2022-08-07T05:55:29;24.25;;;11.00;;
64186;SDS011;50491;39.484;-8.540;2022-08-07T05:57:51;12.77;;;8.35;;
64186;SDS011;50491;39.484;-8.540;2022-08-07T05:59:52;16.48;;;9.77;;
64186;SDS011;50491;39.484;-8.540;2022-08-07T06:01:54;17.48;;;8.82;;
64186;SDS011;50491;39.484;-8.540;2022-08-07T06:03:56;17.98;;;9.68;;
64186;SDS011;50491;39.484;-8.540;2022-08-07T06:05:58;17.02;;;9.73;;
64186;SDS011;50491;39.484;-8.540;2022-08-07T06:08:00;16.48;;;9.57;;
64186;SDS011;50491;39.484;-8.540;2022-08-07T06:10:02;18.35;;;9.80;;
64186;SDS011;50491;39.484;-8.540;2022-08-07T06:14:22;18.35;;;8.45;;
64186;SDS011;50491;39.484;-8.540;2022-08-07T06:16:43;19.90;;;8.07;;
64186;SDS011;50491;39.484;-8.540;2022-08-07T06:18:46;16.88;;;7.53;;
64186;SDS011;50491;39.484;-8.540;2022-08-07T06:20:48;18.52;;;9.07;;
64186;SDS011;50491;39.484;-8.540;2022-08-07T06:25:13;20.60;;;9.95;;
64186;SDS011;50491;39.484;-8.540;2022-08-07T06:30:16;22.23;;;10.10;;
64186;SDS011;50491;39.484;-8.540;2022-08-07T06:42:37;29.63;;;13.30;;
64186;SDS011;50491;39.484;-8.540;2022-08-07T06:44:47;31.90;;;14.55;;
64186;SDS011;50491;39.484;-8.540;2022-08-07T06:47:40;31.33;;;14.98;;
64186;SDS011;50491;39.484;-8.540;2022-08-07T06:49:59;28.85;;;14.10;;
64186;SDS011;50491;39.484;-8.540;2022-08-07T06:52:07;29.95;;;12.55;;
64186;SDS011;50491;39.484;-8.540;2022-08-07T06:54:10;28.92;;;13.43;;
64186;SDS011;50491;39.484;-8.540;2022-08-07T06:56:30;26.35;;;14.40;;
64186;SDS011;50491;39.484;-8.540;2022-08-07T07:02:25;26.50;;;13.60;;
64186;SDS011;50491;39.484;-8.540;2022-08-07T07:04:27;31.73;;;13.25;;
64186;SDS011;50491;39.484;-8.540;2022-08-07T07:06:30;24.17;;;13.27;;
64186;SDS011;50491;39.484;-8.540;2022-08-07T07:08:33;22.45;;;11.75;;
64186;SDS011;50491;39.484;-8.540;2022-08-07T07:10:34;30.52;;;13.57;;
64186;SDS011;50491;39.484;-8.540;2022-08-07T07:13:36;30.33;;;14.45;;
64186;SDS011;50491;39.484;-8.540;2022-08-07T07:15:41;25.98;;;13.32;;
64186;SDS011;50491;39.484;-8.540;2022-08-07T07:20:48;29.58;;;13.23;;
64186;SDS011;50491;39.484;-8.540;2022-08-07T07:22:53;22.13;;;13.57;;
64186;SDS011;50491;39.484;-8.540;2022-08-07T07:24:54;26.05;;;14.88;;
64186;SDS011;50491;39.484;-8.540;2022-08-07T07:27:21;18.63;;;9.90;;
64186;SDS011;50491;39.484;-8.540;2022-08-07T07:29:50;25.50;;;12.32;;
64186;SDS011;50491;39.484;-8.540;2022-08-07T07:31:53;30.52;;;15.93;;
64186;SDS011;50491;39.484;-8.540;2022-08-07T07:34:16;22.73;;;13.02;;
64186;SDS011;50491;39.484;-8.540;2022-08-07T07:36:18;26.55;;;13.43;;
64186;SDS011;50491;39.484;-8.540;2022-08-07T07:38:20;31.92;;;13.48;;
64186;SDS011;50491;39.484;-8.540;2022-08-07T07:40:22;25.25;;;12.57;;
64186;SDS011;50491;39.484;-8.540;2022-08-07T07:42:24;24.90;;;12.50;;
64186;SDS011;50491;39.484;-8.540;2022-08-07T07:44:26;24.52;;;13.77;;
64186;SDS011;50491;39.484;-8.540;2022-08-07T07:46:29;29.90;;;14.05;;
64186;SDS011;50491;39.484;-8.540;2022-08-07T07:48:31;24.35;;;13.68;;
64186;SDS011;50491;39.484;-8.540;2022-08-07T07:50:51;22.00;;;12.60;;
64186;SDS011;50491;39.484;-8.540;2022-08-07T07:53:12;19.67;;;12.10;;
64186;SDS011;50491;39.484;-8.540;2022-08-07T07:56:03;25.40;;;14.25;;
64186;SDS011;50491;39.484;-8.540;2022-08-07T08:03:21;25.30;;;13.43;;
64186;SDS011;50491;39.484;-8.540;2022-08-07T08:05:41;19.85;;;11.98;;
64186;SDS011;50491;39.484;-8.540;2022-08-07T08:07:57;22.95;;;12.07;;
64186;SDS011;50491;39.484;-8.540;2022-08-07T08:10:17;21.95;;;10.98;;
64186;SDS011;50491;39.484;-8.540;2022-08-07T08:12:44;26.35;;;11.07;;
64186;SDS011;50491;39.484;-8.540;2022-08-07T08:14:46;17.80;;;9.88;;
64186;SDS011;50491;39.484;-8.540;2022-08-07T08:16:46;23.83;;;12.55;;
64186;SDS011;50491;39.484;-8.540;2022-08-07T08:18:48;25.52;;;12.88;;
64186;SDS011;50491;39.484;-8.540;2022-08-07T08:21:30;18.35;;;10.45;;
64186;SDS011;50491;39.484;-8.540;2022-08-07T08:23:50;24.58;;;11.68;;
64186;SDS011;50491;39.484;-8.540;2022-08-07T08:26:09;18.20;;;10.27;;
64186;SDS011;50491;39.484;-8.540;2022-08-07T08:28:30;23.48;;;11.30;;
64186;SDS011;50491;39.484;-8.540;2022-08-07T08:30:32;21.35;;;11.82;;
64186;SDS011;50491;39.484;-8.540;2022-08-07T08:32:40;17.08;;;10.00;;
64186;SDS011;50491;39.484;-8.540;2022-08-07T08:35:02;18.83;;;9.55;;
64186;SDS011;50491;39.484;-8.540;2022-08-07T08:37:21;21.45;;;9.52;;
64186;SDS011;50491;39.484;-8.540;2022-08-07T08:39:44;21.42;;;11.88;;
64186;SDS011;50491;39.484;-8.540;2022-08-07T08:41:49;24.65;;;11.10;;
64186;SDS011;50491;39.484;-8.540;2022-08-07T08:55:00;15.25;;;7.57;;
64186;SDS011;50491;39.484;-8.540;2022-08-07T08:57:35;10.43;;;7.20;;
64186;SDS011;50491;39.484;-8.540;2022-08-07T09:05:25;13.33;;;6.73;;
64186;SDS011;50491;39.484;-8.540;2022-08-07T09:07:43;13.85;;;7.35;;
64186;SDS011;50491;39.484;-8.540;2022-08-07T09:14:35;11.52;;;6.43;;
64186;SDS011;50491;39.484;-8.540;2022-08-07T09:17:01;14.57;;;8.73;;
64186;SDS011;50491;39.484;-8.540;2022-08-07T09:21:18;14.95;;;7.28;;
64186;SDS011;50491;39.484;-8.540;2022-08-07T09:28:13;15.40;;;8.55;;
64186;SDS011;50491;39.484;-8.540;2022-08-07T09:41:29;20.70;;;8.45;;
64186;SDS011;50491;39.484;-8.540;2022-08-07T09:43:55;13.93;;;6.90;;
64186;SDS011;50491;39.484;-8.540;2022-08-07T09:46:15;15.25;;;7.63;;
64186;SDS011;50491;39.484;-8.540;2022-08-07T09:49:01;14.15;;;7.45;;
64186;SDS011;50491;39.484;-8.540;2022-08-07T09:53:36;10.27;;;5.68;;
64186;SDS011;50491;39.484;-8.540;2022-08-07T10:03:34;8.70;;;5.40;;
64186;SDS011;50491;39.484;-8.540;2022-08-07T10:16:45;12.25;;;5.88;;
64186;SDS011;50491;39.484;-8.540;2022-08-07T10:19:23;13.85;;;5.57;;
64186;SDS011;50491;39.484;-8.540;2022-08-07T10:21:52;4.47;;;3.40;;
64186;SDS011;50491;39.484;-8.540;2022-08-07T10:26:29;11.93;;;4.78;;
64186;SDS011;50491;39.484;-8.540;2022-08-07T10:47:52;6.70;;;3.25;;
64186;SDS011;50491;39.484;-8.540;2022-08-07T10:50:13;6.78;;;3.65;;
64186;SDS011;50491;39.484;-8.540;2022-08-07T10:52:33;8.45;;;3.63;;
64186;SDS011;50491;39.484;-8.540;2022-08-07T11:13:29;5.93;;;3.78;;
64186;SDS011;50491;39.484;-8.540;2022-08-07T11:15:34;10.63;;;3.60;;
64186;SDS011;50491;39.484;-8.540;2022-08-07T11:28:42;5.47;;;3.42;;
64186;SDS011;50491;39.484;-8.540;2022-08-07T11:36:15;10.32;;;3.97;;
64186;SDS011;50491;39.484;-8.540;2022-08-07T11:38:31;9.10;;;3.38;;
64186;SDS011;50491;39.484;-8.540;2022-08-07T11:40:56;4.90;;;2.92;;
64186;SDS011;50491;39.484;-8.540;2022-08-07T11:45:38;5.00;;;3.33;;
64186;SDS011;50491;39.484;-8.540;2022-08-07T12:08:04;2.97;;;2.53;;
64186;SDS011;50491;39.484;-8.540;2022-08-07T12:10:34;5.05;;;2.47;;
64186;SDS011;50491;39.484;-8.540;2022-08-07T12:12:46;5.82;;;2.72;;
64186;SDS011;50491;39.484;-8.540;2022-08-07T12:14:56;6.32;;;2.90;;
64186;SDS011;50491;39.484;-8.540;2022-08-07T12:17:00;4.32;;;2.95;;
64186;SDS011;50491;39.484;-8.540;2022-08-07T12:21:41;8.13;;;3.47;;
64186;SDS011;50491;39.484;-8.540;2022-08-07T12:24:05;6.80;;;2.63;;
64186;SDS011;50491;39.484;-8.540;2022-08-07T12:26:30;6.88;;;2.67;;
64186;SDS011;50491;39.484;-8.540;2022-08-07T12:31:22;5.78;;;2.33;;
64186;SDS011;50491;39.484;-8.540;2022-08-07T12:33:56;5.30;;;2.55;;
64186;SDS011;50491;39.484;-8.540;2022-08-07T12:35:58;3.17;;;1.83;;
64186;SDS011;50491;39.484;-8.540;2022-08-07T12:37:59;4.68;;;2.03;;
64186;SDS011;50491;39.484;-8.540;2022-08-07T12:40:01;5.63;;;2.10;;
64186;SDS011;50491;39.484;-8.540;2022-08-07T12:42:53;9.07;;;2.42;;
64186;SDS011;50491;39.484;-8.540;2022-08-07T12:45:16;7.50;;;2.15;;
64186;SDS011;50491;39.484;-8.540;2022-08-07T12:47:46;7.70;;;2.65;;
64186;SDS011;50491;39.484;-8.540;2022-08-07T12:52:13;5.43;;;1.80;;
64186;SDS011;50491;39.484;-8.540;2022-08-07T12:59:30;4.18;;;1.77;;
64186;SDS011;50491;39.484;-8.540;2022-08-07T13:24:44;3.58;;;1.48;;
64186;SDS011;50491;39.484;-8.540;2022-08-07T13:26:53;4.30;;;1.70;;
64186;SDS011;50491;39.484;-8.540;2022-08-07T13:33:59;9.00;;;1.90;;
64186;SDS011;50491;39.484;-8.540;2022-08-07T13:36:31;6.35;;;1.30;;
64186;SDS011;50491;39.484;-8.540;2022-08-07T13:39:09;6.68;;;1.80;;
64186;SDS011;50491;39.484;-8.540;2022-08-07T13:43:20;4.25;;;1.42;;
64186;SDS011;50491;39.484;-8.540;2022-08-07T13:45:22;4.25;;;1.55;;
64186;SDS011;50491;39.484;-8.540;2022-08-07T13:47:25;5.72;;;2.03;;
64186;SDS011;50491;39.484;-8.540;2022-08-07T13:49:31;2.55;;;1.40;;
64186;SDS011;50491;39.484;-8.540;2022-08-07T13:51:33;4.95;;;1.85;;
64186;SDS011;50491;39.484;-8.540;2022-08-07T13:53:37;5.40;;;1.60;;
64186;SDS011;50491;39.484;-8.540;2022-08-07T13:56:04;3.45;;;1.70;;
64186;SDS011;50491;39.484;-8.540;2022-08-07T14:03:40;4.32;;;1.50;;
64186;SDS011;50491;39.484;-8.540;2022-08-07T14:05:41;6.30;;;1.80;;
64186;SDS011;50491;39.484;-8.540;2022-08-07T14:07:46;3.22;;;1.70;;
64186;SDS011;50491;39.484;-8.540;2022-08-07T14:10:12;2.40;;;1.15;;
64186;SDS011;50491;39.484;-8.540;2022-08-07T14:12:18;3.60;;;1.67;;
64186;SDS011;50491;39.484;-8.540;2022-08-07T14:14:25;1.83;;;1.60;;
64186;SDS011;50491;39.484;-8.540;2022-08-07T14:16:47;1.85;;;1.40;;
64186;SDS011;50491;39.484;-8.540;2022-08-07T14:18:48;3.28;;;1.73;;
64186;SDS011;50491;39.484;-8.540;2022-08-07T14:20:50;3.20;;;1.73;;
64186;SDS011;50491;39.484;-8.540;2022-08-07T14:23:18;5.22;;;1.70;;
64186;SDS011;50491;39.484;-8.540;2022-08-07T14:25:23;6.45;;;1.90;;
64186;SDS011;50491;39.484;-8.540;2022-08-07T14:27:27;5.10;;;2.13;;
64186;SDS011;50491;39.484;-8.540;2022-08-07T14:29:32;5.43;;;1.55;;
64186;SDS011;50491;39.484;-8.540;2022-08-07T14:31:52;6.00;;;2.25;;
64186;SDS011;50491;39.484;-8.540;2022-08-07T14:33:54;3.95;;;1.40;;
64186;SDS011;50491;39.484;-8.540;2022-08-07T14:36:20;3.75;;;1.50;;
64186;SDS011;50491;39.484;-8.540;2022-08-07T14:38:23;2.40;;;1.55;;
64186;SDS011;50491;39.484;-8.540;2022-08-07T14:43:24;3.85;;;1.80;;
64186;SDS011;50491;39.484;-8.540;2022-08-07T14:48:06;3.20;;;1.85;;
64186;SDS011;50491;39.484;-8.540;2022-08-07T14:50:31;3.65;;;1.52;;
64186;SDS011;50491;39.484;-8.540;2022-08-07T14:58:52;5.85;;;1.88;;
64186;SDS011;50491;39.484;-8.540;2022-08-07T15:01:12;5.15;;;1.70;;
64186;SDS011;50491;39.484;-8.540;2022-08-07T15:03:33;3.33;;;1.60;;
64186;SDS011;50491;39.484;-8.540;2022-08-07T15:05:53;2.53;;;1.67;;
64186;SDS011;50491;39.484;-8.540;2022-08-07T15:08:12;5.78;;;1.90;;
64186;SDS011;50491;39.484;-8.540;2022-08-07T15:10:16;2.83;;;1.40;;
64186;SDS011;50491;39.484;-8.540;2022-08-07T15:17:55;4.25;;;1.58;;
64186;SDS011;50491;39.484;-8.540;2022-08-07T15:22:44;3.53;;;1.25;;
64186;SDS011;50491;39.484;-8.540;2022-08-07T15:25:06;4.32;;;1.77;;
64186;SDS011;50491;39.484;-8.540;2022-08-07T15:38:11;5.15;;;1.33;;
64186;SDS011;50491;39.484;-8.540;2022-08-07T15:40:13;3.58;;;1.33;;
64186;SDS011;50491;39.484;-8.540;2022-08-07T15:44:47;2.08;;;1.30;;
64186;SDS011;50491;39.484;-8.540;2022-08-07T15:52:12;4.70;;;1.50;;
64186;SDS011;50491;39.484;-8.540;2022-08-07T15:54:13;3.67;;;1.40;;
64186;SDS011;50491;39.484;-8.540;2022-08-07T15:56:34;3.05;;;1.10;;
64186;SDS011;50491;39.484;-8.540;2022-08-07T15:58:55;3.50;;;1.17;;
64186;SDS011;50491;39.484;-8.540;2022-08-07T16:00:58;2.17;;;1.30;;
64186;SDS011;50491;39.484;-8.540;2022-08-07T16:03:21;2.75;;;1.38;;
64186;SDS011;50491;39.484;-8.540;2022-08-07T16:16:07;4.75;;;1.90;;
64186;SDS011;50491;39.484;-8.540;2022-08-07T16:20:46;8.48;;;1.38;;
64186;SDS011;50491;39.484;-8.540;2022-08-07T16:23:28;4.82;;;1.50;;
64186;SDS011;50491;39.484;-8.540;2022-08-07T16:28:11;5.38;;;1.63;;
64186;SDS011;50491;39.484;-8.540;2022-08-07T16:30:46;4.15;;;1.42;;
64186;SDS011;50491;39.484;-8.540;2022-08-07T16:33:05;5.33;;;1.67;;
64186;SDS011;50491;39.484;-8.540;2022-08-07T16:42:09;4.50;;;1.90;;
64186;SDS011;50491;39.484;-8.540;2022-08-07T16:44:19;4.90;;;1.40;;
64186;SDS011;50491;39.484;-8.540;2022-08-07T16:48:52;12.57;;;1.95;;
64186;SDS011;50491;39.484;-8.540;2022-08-07T16:51:17;3.13;;;1.48;;
64186;SDS011;50491;39.484;-8.540;2022-08-07T16:56:17;4.00;;;1.98;;
64186;SDS011;50491;39.484;-8.540;2022-08-07T16:58:28;5.93;;;1.90;;
64186;SDS011;50491;39.484;-8.540;2022-08-07T17:00:38;4.10;;;2.03;;
64186;SDS011;50491;39.484;-8.540;2022-08-07T17:04:48;2.20;;;1.45;;
64186;SDS011;50491;39.484;-8.540;2022-08-07T17:07:11;2.50;;;1.08;;
64186;SDS011;50491;39.484;-8.540;2022-08-07T17:17:48;2.67;;;1.47;;
64186;SDS011;50491;39.484;-8.540;2022-08-07T17:20:14;4.30;;;2.13;;
64186;SDS011;50491;39.484;-8.540;2022-08-07T17:22:27;9.48;;;1.77;;
64186;SDS011;50491;39.484;-8.540;2022-08-07T17:25:06;6.25;;;2.13;;
64186;SDS011;50491;39.484;-8.540;2022-08-07T17:34:42;6.55;;;4.53;;
64186;SDS011;50491;39.484;-8.540;2022-08-07T17:37:03;10.68;;;4.53;;
64186;SDS011;50491;39.484;-8.540;2022-08-07T17:39:46;13.98;;;5.30;;
64186;SDS011;50491;39.484;-8.540;2022-08-07T17:56:57;12.02;;;5.93;;
64186;SDS011;50491;39.484;-8.540;2022-08-07T17:59:12;8.30;;;4.72;;
64186;SDS011;50491;39.484;-8.540;2022-08-07T18:06:36;8.80;;;5.90;;
64186;SDS011;50491;39.484;-8.540;2022-08-07T18:08:42;10.90;;;5.95;;
64186;SDS011;50491;39.484;-8.540;2022-08-07T18:10:48;10.63;;;5.50;;
64186;SDS011;50491;39.484;-8.540;2022-08-07T18:13:09;10.85;;;6.38;;
64186;SDS011;50491;39.484;-8.540;2022-08-07T18:18:38;15.10;;;6.30;;
64186;SDS011;50491;39.484;-8.540;2022-08-07T18:21:10;10.73;;;6.07;;
64186;SDS011;50491;39.484;-8.540;2022-08-07T18:24:02;11.27;;;6.38;;
64186;SDS011;50491;39.484;-8.540;2022-08-07T18:26:19;12.52;;;6.32;;
64186;SDS011;50491;39.484;-8.540;2022-08-07T18:28:30;13.75;;;5.88;;
64186;SDS011;50491;39.484;-8.540;2022-08-07T18:30:42;8.70;;;5.53;;
64186;SDS011;50491;39.484;-8.540;2022-08-07T18:41:27;11.50;;;6.10;;
64186;SDS011;50491;39.484;-8.540;2022-08-07T18:46:03;10.85;;;5.90;;
64186;SDS011;50491;39.484;-8.540;2022-08-07T18:48:07;15.68;;;6.68;;
64186;SDS011;50491;39.484;-8.540;2022-08-07T18:52:33;10.73;;;6.75;;
64186;SDS011;50491;39.484;-8.540;2022-08-07T18:57:21;13.40;;;6.85;;
64186;SDS011;50491;39.484;-8.540;2022-08-07T19:00:05;12.93;;;7.38;;
64186;SDS011;50491;39.484;-8.540;2022-08-07T19:05:36;17.50;;;8.50;;
64186;SDS011;50491;39.484;-8.540;2022-08-07T19:11:19;16.27;;;8.80;;
64186;SDS011;50491;39.484;-8.540;2022-08-07T19:14:22;11.63;;;7.45;;
64186;SDS011;50491;39.484;-8.540;2022-08-07T19:20:58;14.02;;;7.70;;
64186;SDS011;50491;39.484;-8.540;2022-08-07T19:25:16;15.02;;;7.60;;
64186;SDS011;50491;39.484;-8.540;2022-08-07T19:27:21;18.75;;;8.30;;
64186;SDS011;50491;39.484;-8.540;2022-08-07T19:29:24;18.63;;;6.70;;
64186;SDS011;50491;39.484;-8.540;2022-08-07T19:31:50;15.40;;;7.95;;
64186;SDS011;50491;39.484;-8.540;2022-08-07T19:33:52;16.30;;;8.43;;
64186;SDS011;50491;39.484;-8.540;2022-08-07T19:35:54;16.23;;;8.05;;
64186;SDS011;50491;39.484;-8.540;2022-08-07T19:38:39;17.13;;;9.32;;
64186;SDS011;50491;39.484;-8.540;2022-08-07T19:40:42;14.65;;;8.00;;
64186;SDS011;50491;39.484;-8.540;2022-08-07T19:43:16;14.00;;;7.90;;
64186;SDS011;50491;39.484;-8.540;2022-08-07T19:45:39;12.88;;;8.85;;
64186;SDS011;50491;39.484;-8.540;2022-08-07T19:47:41;16.75;;;8.60;;
64186;SDS011;50491;39.484;-8.540;2022-08-07T19:50:04;11.95;;;7.43;;
64186;SDS011;50491;39.484;-8.540;2022-08-07T19:52:25;15.13;;;8.43;;
64186;SDS011;50491;39.484;-8.540;2022-08-07T19:54:26;20.35;;;9.23;;
64186;SDS011;50491;39.484;-8.540;2022-08-07T19:58:47;16.95;;;9.18;;
64186;SDS011;50491;39.484;-8.540;2022-08-07T20:01:15;14.27;;;8.38;;
64186;SDS011;50491;39.484;-8.540;2022-08-07T20:03:35;16.80;;;8.80;;
64186;SDS011;50491;39.484;-8.540;2022-08-07T20:05:56;14.50;;;7.18;;
64186;SDS011;50491;39.484;-8.540;2022-08-07T20:08:20;14.98;;;8.25;;
64186;SDS011;50491;39.484;-8.540;2022-08-07T20:10:27;20.70;;;9.02;;
64186;SDS011;50491;39.484;-8.540;2022-08-07T20:12:29;20.45;;;9.75;;
64186;SDS011;50491;39.484;-8.540;2022-08-07T20:14:31;16.23;;;8.95;;